createdAt,value
2022-08-28T00:01:38.657Z,60.80
2022-08-28T00:04:14.007Z,60.81
2022-08-28T00:06:43.243Z,60.83
2022-08-28T00:09:13.619Z,60.63
2022-08-28T00:11:43.515Z,60.77
2022-08-28T00:14:14.556Z,61.10
2022-08-28T00:16:46.717Z,60.92
2022-08-28T00:19:19.268Z,60.99
2022-08-28T00:21:48.765Z,61.04
2022-08-28T00:24:27.280Z,60.82
2022-08-28T00:27:14.991Z,60.93
2022-08-28T00:29:51.188Z,60.69
2022-08-28T00:32:24.093Z,60.84
2022-08-28T00:34:54.205Z,60.96
2022-08-28T00:37:24.646Z,61.13
2022-08-28T00:39:54.971Z,61.36
2022-08-28T00:42:26.356Z,61.42
2022-08-28T00:44:56.057Z,61.66
2022-08-28T00:47:28.581Z,62.11
2022-08-28T00:50:02.151Z,61.84
2022-08-28T00:52:32.029Z,61.92
2022-08-28T00:55:06.650Z,61.80
2022-08-28T00:57:43.554Z,61.82
2022-08-28T01:00:18.052Z,61.38
2022-08-28T01:02:48.425Z,61.37
2022-08-28T01:05:18.910Z,61.36
2022-08-28T01:07:53.455Z,61.25
2022-08-28T01:10:26.633Z,61.32
2022-08-28T01:12:58.907Z,61.06
2022-08-28T01:15:34.949Z,61.20
2022-08-28T01:18:14.376Z,61.10
2022-08-28T01:20:57.905Z,61.00
2022-08-28T01:23:49.611Z,60.71
2022-08-28T01:26:20.230Z,60.62
2022-08-28T01:28:55.448Z,60.44
2022-08-28T01:31:26.936Z,60.37
2022-08-28T01:33:58.754Z,60.35
2022-08-28T01:36:31.319Z,60.29
2022-08-28T01:39:10.412Z,60.14
2022-08-28T01:41:49.914Z,60.20
2022-08-28T01:44:25.970Z,60.01
2022-08-28T01:47:00.121Z,60.01
2022-08-28T01:49:29.829Z,59.98
2022-08-28T01:51:59.296Z,59.99
2022-08-28T01:54:29.479Z,60.19
2022-08-28T01:56:59.718Z,60.20
2022-08-28T01:59:29.558Z,60.19
2022-08-28T02:02:03.540Z,60.30
2022-08-28T02:04:36.270Z,60.51
2022-08-28T02:07:06.147Z,60.74
2022-08-28T02:09:39.886Z,60.86
2022-08-28T02:12:10.723Z,60.92
2022-08-28T02:14:40.900Z,61.26
2022-08-28T02:17:12.383Z,61.02
2022-08-28T02:19:44.474Z,61.23
2022-08-28T02:22:15.713Z,61.26
2022-08-28T02:24:45.667Z,61.35
2022-08-28T02:27:16.877Z,61.29
2022-08-28T02:29:49.777Z,61.27
2022-08-28T02:32:19.875Z,61.41
2022-08-28T02:34:49.842Z,61.61
2022-08-28T02:37:20.774Z,61.76
2022-08-28T02:39:57.522Z,61.71
2022-08-28T02:42:30.611Z,61.80
2022-08-28T02:45:03.704Z,61.87
2022-08-28T02:47:33.608Z,61.69
2022-08-28T02:50:07.589Z,61.69
2022-08-28T02:52:39.487Z,61.87
2022-08-28T02:55:13.244Z,61.62
2022-08-28T02:57:51.377Z,61.80
2022-08-28T03:00:25.543Z,61.92
2022-08-28T03:03:12.142Z,62.11
2022-08-28T03:05:48.054Z,61.89
2022-08-28T03:08:20.085Z,62.01
2022-08-28T03:10:56.854Z,62.19
2022-08-28T03:13:33.943Z,62.31
2022-08-28T03:16:05.584Z,62.43
2022-08-28T03:18:37.822Z,62.47
2022-08-28T03:21:13.890Z,62.33
2022-08-28T03:23:43.913Z,62.33
2022-08-28T03:26:19.609Z,62.49
2022-08-28T03:28:53.211Z,62.38
2022-08-28T03:31:26.114Z,62.48
2022-08-28T03:33:57.170Z,62.59
2022-08-28T03:36:28.768Z,62.65
2022-08-28T03:39:05.053Z,62.58
2022-08-28T03:41:37.081Z,62.53
2022-08-28T03:44:07.434Z,62.82
2022-08-28T03:46:37.318Z,63.00
2022-08-28T03:49:12.986Z,62.79
2022-08-28T03:51:42.956Z,62.83
2022-08-28T03:54:15.720Z,63.06
2022-08-28T03:56:47.645Z,62.88
2022-08-28T03:59:17.523Z,62.98
2022-08-28T04:01:48.757Z,63.10
2022-08-28T04:04:21.567Z,62.98
2022-08-28T04:06:54.743Z,63.08
2022-08-28T04:09:24.823Z,63.04
2022-08-28T04:11:55.178Z,63.07
2022-08-28T04:14:29.686Z,63.02
2022-08-28T04:17:06.085Z,63.06
2022-08-28T04:19:36.867Z,63.21
2022-08-28T04:22:06.900Z,63.34
2022-08-28T04:24:39.851Z,63.39
2022-08-28T04:27:09.692Z,63.48
2022-08-28T04:29:43.577Z,63.75
2022-08-28T04:32:14.924Z,63.74
2022-08-28T04:34:44.931Z,63.81
2022-08-28T04:37:14.926Z,63.66
2022-08-28T04:39:44.431Z,63.89
2022-08-28T04:42:16.814Z,64.13
2022-08-28T04:44:51.270Z,64.16
2022-08-28T04:47:25.275Z,64.30
2022-08-28T04:49:56.035Z,64.24
2022-08-28T04:52:27.327Z,64.33
2022-08-28T04:54:58.520Z,64.53
2022-08-28T04:57:36.133Z,64.69
2022-08-28T05:00:09.478Z,64.84
2022-08-28T05:02:41.815Z,65.04
2022-08-28T05:05:14.694Z,65.02
2022-08-28T05:07:45.003Z,65.21
2022-08-28T05:10:15.420Z,65.58
2022-08-28T05:12:50.341Z,65.70
2022-08-28T05:15:20.643Z,65.40
2022-08-28T05:17:50.953Z,65.44
2022-08-28T05:20:20.562Z,65.71
2022-08-28T05:22:49.688Z,65.66
2022-08-28T05:25:18.756Z,65.58
2022-08-28T05:27:54.907Z,65.58
2022-08-28T05:30:27.903Z,65.82
2022-08-28T05:33:00.819Z,65.67
2022-08-28T05:35:34.252Z,65.80
2022-08-28T05:38:04.189Z,65.49
2022-08-28T05:40:43.590Z,65.29
2022-08-28T05:43:16.491Z,65.45
2022-08-28T05:45:46.558Z,65.41
2022-08-28T05:48:17.975Z,65.60
2022-08-28T05:50:51.614Z,65.42
2022-08-28T05:53:21.307Z,65.07
2022-08-28T05:55:51.888Z,64.86
2022-08-28T05:58:35.047Z,64.93
2022-08-28T06:01:21.522Z,65.02
2022-08-28T06:04:01.810Z,65.76
2022-08-28T06:06:38.888Z,65.64
2022-08-28T06:09:30.185Z,65.95
2022-08-28T06:12:05.284Z,66.09
2022-08-28T06:14:35.707Z,66.16
2022-08-28T06:17:07.963Z,65.94
2022-08-28T06:19:41.500Z,65.84
2022-08-28T06:22:18.024Z,65.86
2022-08-28T06:24:47.459Z,65.97
2022-08-28T06:27:20.422Z,65.94
2022-08-28T06:29:50.490Z,65.95
2022-08-28T06:32:19.806Z,65.52
2022-08-28T06:34:49.606Z,65.53
2022-08-28T06:37:20.977Z,65.59
2022-08-28T06:39:51.309Z,65.24
2022-08-28T06:42:22.979Z,65.05
2022-08-28T06:44:52.883Z,64.87
2022-08-28T06:47:22.682Z,64.93
2022-08-28T06:49:56.173Z,64.86
2022-08-28T06:52:32.546Z,64.50
2022-08-28T06:55:02.643Z,64.38
2022-08-28T06:57:33.191Z,64.22
2022-08-28T07:00:06.386Z,64.12
2022-08-28T07:02:36.122Z,64.16
2022-08-28T07:05:10.197Z,64.04
2022-08-28T07:07:39.620Z,64.18
2022-08-28T07:10:09.101Z,64.21
2022-08-28T07:12:38.051Z,64.35
2022-08-28T07:15:11.569Z,64.24
2022-08-28T07:17:41.013Z,64.04
2022-08-28T07:20:13.397Z,63.62
2022-08-28T07:22:42.767Z,63.25
2022-08-28T07:25:14.323Z,63.92
2022-08-28T07:27:44.089Z,64.10
2022-08-28T07:30:16.311Z,64.37
2022-08-28T07:32:49.956Z,64.11
2022-08-28T07:35:24.580Z,63.88
2022-08-28T07:37:54.299Z,63.88
2022-08-28T07:40:24.267Z,64.05
2022-08-28T07:43:12.350Z,64.02
2022-08-28T07:45:43.251Z,63.67
2022-08-28T07:48:15.007Z,63.56
2022-08-28T07:50:44.312Z,63.28
2022-08-28T07:53:14.339Z,63.23
2022-08-28T07:55:43.769Z,62.99
2022-08-28T07:58:14.480Z,63.07
2022-08-28T08:00:48.371Z,62.83
2022-08-28T08:03:20.194Z,62.70
2022-08-28T08:05:58.980Z,62.70
2022-08-28T08:08:29.410Z,62.22
2022-08-28T08:11:00.311Z,61.75
2022-08-28T08:13:36.142Z,61.66
2022-08-28T08:16:14.614Z,61.37
2022-08-28T08:18:45.262Z,61.55
2022-08-28T08:21:15.787Z,61.52
2022-08-28T08:23:46.928Z,61.14
2022-08-28T08:26:23.412Z,60.98
2022-08-28T08:28:54.250Z,61.15
2022-08-28T08:31:28.690Z,60.68
2022-08-28T08:34:02.565Z,60.76
2022-08-28T08:36:34.198Z,60.79
2022-08-28T08:39:06.600Z,60.32
2022-08-28T08:41:48.433Z,59.81
2022-08-28T08:44:46.985Z,59.54
2022-08-28T08:47:50.223Z,59.36
2022-08-28T08:53:49.714Z,58.53
2022-08-28T08:56:22.187Z,58.58
2022-08-28T08:58:54.804Z,58.19
2022-08-28T09:01:31.636Z,58.12
2022-08-28T09:04:25.775Z,57.97
2022-08-28T09:07:01.670Z,57.59
2022-08-28T09:09:41.632Z,57.24
2022-08-28T09:12:23.656Z,57.08
2022-08-28T09:15:14.670Z,56.97
2022-08-28T09:18:04.332Z,56.75
2022-08-28T09:20:33.643Z,56.60
2022-08-28T09:23:12.724Z,56.19
2022-08-28T09:25:45.284Z,55.88
2022-08-28T09:28:19.887Z,55.73
2022-08-28T09:31:19.600Z,55.71
2022-08-28T09:33:52.290Z,55.70
2022-08-28T09:36:37.930Z,55.31
2022-08-28T09:39:24.722Z,55.12
2022-08-28T09:42:24.825Z,54.70
2022-08-28T09:44:56.745Z,54.22
2022-08-28T09:47:46.137Z,54.00
2022-08-28T09:50:37.970Z,53.74
2022-08-28T09:53:09.923Z,53.92
2022-08-28T09:56:11.122Z,54.03
2022-08-28T09:59:01.539Z,53.67
2022-08-28T10:01:45.179Z,53.67
2022-08-28T10:04:51.831Z,53.35
2022-08-28T10:08:12.987Z,53.17
2022-08-28T10:10:50.969Z,52.88
2022-08-28T10:13:40.814Z,52.19
2022-08-28T10:16:45.737Z,51.88
2022-08-28T10:19:53.165Z,51.18
2022-08-28T10:22:47.647Z,50.87
2022-08-28T10:25:30.676Z,51.12
2022-08-28T10:28:23.508Z,50.97
2022-08-28T10:31:10.081Z,50.94
2022-08-28T10:33:50.505Z,50.80
2022-08-28T10:36:36.094Z,50.52
2022-08-28T10:39:43.363Z,50.44
2022-08-28T10:42:12.394Z,49.48
2022-08-28T10:45:06.743Z,49.22
2022-08-28T10:47:55.998Z,48.68
2022-08-28T10:50:51.635Z,48.21
2022-08-28T10:53:33.379Z,48.15
2022-08-28T10:56:11.295Z,47.76
2022-08-28T10:58:41.717Z,47.69
2022-08-28T11:01:31.536Z,47.70
2022-08-28T11:09:31.456Z,46.89
2022-08-28T11:12:10.124Z,46.70
2022-08-28T11:14:48.407Z,46.56
2022-08-28T11:17:28.021Z,46.54
2022-08-28T11:20:33.156Z,46.54
2022-08-28T11:23:17.133Z,45.86
2022-08-28T11:29:05.195Z,45.57
2022-08-28T11:31:39.716Z,45.26
2022-08-28T11:34:09.233Z,45.25
2022-08-28T11:36:38.233Z,45.26
2022-08-28T11:39:21.775Z,45.05
2022-08-28T11:42:10.090Z,44.83
2022-08-28T11:44:41.668Z,45.21
2022-08-28T11:47:42.665Z,44.56
2022-08-28T11:50:20.938Z,44.28
2022-08-28T11:52:56.268Z,44.35
2022-08-28T11:55:34.297Z,44.07
2022-08-28T11:58:22.632Z,43.58
2022-08-28T12:01:06.571Z,43.03
2022-08-28T12:03:57.298Z,43.21
2022-08-28T12:06:56.890Z,43.09
2022-08-28T12:09:43.090Z,42.94
2022-08-28T12:12:24.570Z,42.65
2022-08-28T12:14:56.809Z,42.87
2022-08-28T12:17:43.736Z,43.72
2022-08-28T12:20:51.633Z,43.80
2022-08-28T12:23:23.792Z,43.95
2022-08-28T12:26:02.452Z,43.43
2022-08-28T12:29:01.882Z,42.91
2022-08-28T12:32:12.121Z,42.69
2022-08-28T12:34:53.577Z,42.59
2022-08-28T12:37:39.503Z,42.49
2022-08-28T12:40:27.293Z,43.17
2022-08-28T12:43:01.349Z,43.18
2022-08-28T12:45:33.235Z,43.01
2022-08-28T12:48:11.312Z,42.82
2022-08-28T12:50:41.626Z,42.29
2022-08-28T12:53:18.350Z,41.80
2022-08-28T12:55:48.112Z,42.06
2022-08-28T12:58:40.006Z,42.02
2022-08-28T13:01:25.222Z,42.50
2022-08-28T13:04:00.091Z,41.37
2022-08-28T13:06:40.047Z,41.73
2022-08-28T13:09:24.392Z,41.79
2022-08-28T13:12:07.460Z,42.24
2022-08-28T13:14:37.886Z,41.85
2022-08-28T13:17:08.769Z,42.11
2022-08-28T13:19:39.167Z,42.43
2022-08-28T13:22:41.062Z,41.42
2022-08-28T13:25:29.235Z,41.54
2022-08-28T13:28:05.672Z,41.36
2022-08-28T13:30:36.204Z,41.00
2022-08-28T13:33:23.075Z,40.91
2022-08-28T13:36:26.884Z,40.96
2022-08-28T13:38:56.282Z,40.35
2022-08-28T13:44:12.248Z,40.92
2022-08-28T13:46:42.427Z,41.34
2022-08-28T13:49:11.775Z,41.33
2022-08-28T13:51:40.905Z,41.11
2022-08-28T13:54:24.108Z,40.72
2022-08-28T13:56:55.952Z,40.57
2022-08-28T13:59:25.536Z,40.74
2022-08-28T14:02:31.499Z,40.69
2022-08-28T14:05:00.878Z,40.29
2022-08-28T14:07:30.713Z,40.30
2022-08-28T14:09:59.767Z,40.26
2022-08-28T14:12:33.372Z,40.58
2022-08-28T14:15:04.155Z,40.36
2022-08-28T14:17:46.812Z,40.75
2022-08-28T14:20:16.182Z,40.41
2022-08-28T14:22:45.581Z,40.47
2022-08-28T14:25:15.261Z,40.01
2022-08-28T14:27:44.192Z,39.99
2022-08-28T14:30:13.889Z,40.02
2022-08-28T14:32:43.407Z,40.46
2022-08-28T14:35:12.856Z,40.99
2022-08-28T14:37:42.109Z,40.83
2022-08-28T14:40:12.953Z,40.59
2022-08-28T14:42:42.086Z,41.01
2022-08-28T14:45:12.629Z,40.44
2022-08-28T14:47:45.767Z,40.95
2022-08-28T14:50:31.680Z,41.62
2022-08-28T14:53:16.176Z,41.66
2022-08-28T14:55:48.561Z,42.40
2022-08-28T14:58:19.893Z,42.55
2022-08-28T15:01:03.546Z,42.74
2022-08-28T15:03:34.620Z,42.52
2022-08-28T15:06:09.811Z,42.95
2022-08-28T15:08:39.958Z,42.78
2022-08-28T15:11:17.865Z,42.94
2022-08-28T15:14:01.257Z,43.38
2022-08-28T15:16:39.359Z,43.37
2022-08-28T15:19:12.595Z,43.69
2022-08-28T15:21:46.520Z,43.75
2022-08-28T15:24:18.876Z,44.06
2022-08-28T15:26:50.446Z,44.35
2022-08-28T15:29:21.634Z,44.74
2022-08-28T15:31:51.579Z,45.03
2022-08-28T15:34:33.957Z,45.28
2022-08-28T15:37:04.236Z,45.45
2022-08-28T15:39:57.274Z,45.51
2022-08-28T15:42:28.180Z,45.86
2022-08-28T15:45:00.596Z,46.09
2022-08-28T15:47:30.817Z,46.20
2022-08-28T15:50:01.279Z,46.47
2022-08-28T15:52:30.551Z,46.69
2022-08-28T15:54:59.943Z,46.83
2022-08-28T15:57:29.673Z,47.05
2022-08-28T16:00:02.874Z,47.38
2022-08-28T16:02:37.598Z,47.35
2022-08-28T16:05:10.147Z,47.77
2022-08-28T16:07:40.652Z,47.33
2022-08-28T16:10:14.023Z,47.70
2022-08-28T16:12:43.806Z,47.83
2022-08-28T16:15:21.198Z,47.88
2022-08-28T16:17:51.173Z,48.18
2022-08-28T16:20:21.052Z,48.12
2022-08-28T16:22:52.418Z,48.17
2022-08-28T16:25:22.859Z,48.49
2022-08-28T16:27:52.165Z,48.87
2022-08-28T16:30:25.017Z,48.71
2022-08-28T16:32:55.022Z,49.12
2022-08-28T16:35:25.473Z,49.34
2022-08-28T16:37:54.722Z,49.24
2022-08-28T16:40:38.513Z,49.80
2022-08-28T16:43:08.363Z,50.18
2022-08-28T16:45:38.277Z,50.20
2022-08-28T16:48:07.953Z,50.43
2022-08-28T16:50:37.173Z,50.45
2022-08-28T16:53:07.277Z,50.55
2022-08-28T16:55:37.976Z,50.94
2022-08-28T16:58:08.711Z,51.00
2022-08-28T17:00:44.329Z,51.45
2022-08-28T17:03:25.811Z,51.43
2022-08-28T17:05:59.450Z,51.72
2022-08-28T17:08:28.753Z,51.83
2022-08-28T17:10:59.988Z,51.78
2022-08-28T17:13:32.014Z,52.04
2022-08-28T17:16:03.019Z,52.30
2022-08-28T17:18:33.017Z,52.35
2022-08-28T17:21:21.185Z,52.39
2022-08-28T17:23:51.584Z,52.47
2022-08-28T17:26:21.935Z,52.63
2022-08-28T17:28:55.616Z,52.69
2022-08-28T17:31:29.605Z,52.83
2022-08-28T17:33:59.006Z,52.90
2022-08-28T17:36:33.683Z,53.73
2022-08-28T17:39:07.416Z,55.27
2022-08-28T17:41:37.620Z,54.92
2022-08-28T17:44:07.857Z,55.28
2022-08-28T17:46:48.839Z,55.56
2022-08-28T17:49:19.052Z,55.75
2022-08-28T17:51:49.358Z,56.21
2022-08-28T17:54:23.315Z,56.32
2022-08-28T17:56:55.320Z,56.83
2022-08-28T17:59:38.461Z,57.59
2022-08-28T18:02:08.047Z,58.27
2022-08-28T18:04:38.127Z,59.51
2022-08-28T18:07:11.856Z,59.22
2022-08-28T18:09:41.139Z,58.92
2022-08-28T18:12:12.937Z,59.57
2022-08-28T18:14:42.391Z,59.56
2022-08-28T18:17:16.657Z,59.85
2022-08-28T18:19:46.465Z,60.28
2022-08-28T18:22:16.014Z,60.38
2022-08-28T18:24:45.878Z,60.67
2022-08-28T18:27:15.800Z,60.94
2022-08-28T18:29:47.102Z,61.31
2022-08-28T18:35:02.876Z,61.26
2022-08-28T18:37:32.044Z,61.10
2022-08-28T18:40:01.768Z,61.52
2022-08-28T18:42:35.235Z,62.07
2022-08-28T18:45:09.120Z,61.79
2022-08-28T18:47:40.278Z,62.43
2022-08-28T18:50:12.106Z,62.57
2022-08-28T18:52:45.819Z,63.08
2022-08-28T18:55:15.155Z,62.79
2022-08-28T18:57:47.747Z,62.79
2022-08-28T19:00:17.742Z,63.27
2022-08-28T19:02:46.853Z,63.03
2022-08-28T19:05:17.466Z,63.04
2022-08-28T19:07:49.219Z,63.45
2022-08-28T19:10:32.586Z,63.55
2022-08-28T19:13:04.298Z,63.86
2022-08-28T19:15:34.887Z,63.98
2022-08-28T19:18:05.854Z,64.05
2022-08-28T19:20:35.416Z,64.48
2022-08-28T19:23:05.617Z,64.57
2022-08-28T19:25:35.646Z,64.71
2022-08-28T19:28:05.230Z,64.78
2022-08-28T19:30:35.430Z,65.01
2022-08-28T19:33:06.458Z,66.04
2022-08-28T19:35:36.550Z,66.36
2022-08-28T19:38:08.958Z,65.84
2022-08-28T19:40:41.630Z,66.00
2022-08-28T19:43:14.325Z,66.19
2022-08-28T19:45:46.843Z,67.12
2022-08-28T19:48:16.483Z,66.96
2022-08-28T19:50:46.091Z,67.54
2022-08-28T19:53:15.852Z,67.40
2022-08-28T19:55:44.951Z,67.99
2022-08-28T19:58:13.934Z,68.01
2022-08-28T20:00:42.661Z,67.95
2022-08-28T20:03:12.044Z,67.78
2022-08-28T20:05:41.964Z,69.12
2022-08-28T20:08:11.179Z,68.97
2022-08-28T20:10:42.781Z,67.64
2022-08-28T20:13:12.909Z,67.43
2022-08-28T20:15:46.493Z,67.45
2022-08-28T20:31:07.562Z,67.55
2022-08-28T20:33:37.179Z,68.01
2022-08-28T20:36:08.153Z,68.22
2022-08-28T20:38:48.148Z,68.73
2022-08-28T20:41:21.163Z,69.56
2022-08-28T20:43:51.716Z,70.17
2022-08-28T20:46:21.509Z,71.12
2022-08-28T20:49:05.895Z,71.05
2022-08-28T20:51:54.708Z,72.86
2022-08-28T20:54:28.966Z,72.52
2022-08-28T20:57:02.342Z,72.42
2022-08-28T20:59:39.243Z,72.71
2022-08-28T21:02:17.281Z,72.96
2022-08-28T21:04:48.302Z,72.83
2022-08-28T21:07:19.849Z,72.70
2022-08-28T21:10:05.423Z,73.12
2022-08-28T21:12:50.289Z,72.76
2022-08-28T21:15:33.234Z,72.80
2022-08-28T21:18:04.387Z,72.55
2022-08-28T21:20:34.275Z,73.01
2022-08-28T21:23:09.879Z,73.86
2022-08-28T21:25:43.864Z,73.72
2022-08-28T21:28:13.397Z,74.04
2022-08-28T21:30:50.389Z,73.62
2022-08-28T21:33:26.970Z,73.68
2022-08-28T21:35:59.456Z,74.92
2022-08-28T21:38:31.503Z,74.20
2022-08-28T21:41:17.883Z,75.46
2022-08-28T21:43:48.552Z,75.57
2022-08-28T21:46:19.903Z,75.12
2022-08-28T21:48:58.094Z,75.33
2022-08-28T21:51:27.938Z,75.04
2022-08-28T21:54:00.536Z,75.00
2022-08-28T21:56:37.534Z,75.24
2022-08-28T21:59:07.451Z,76.43
2022-08-28T22:01:37.566Z,76.39
2022-08-28T22:04:08.868Z,76.81
2022-08-28T22:06:44.405Z,76.53
2022-08-28T22:09:21.125Z,77.24
2022-08-28T22:11:50.812Z,77.99
2022-08-28T22:14:25.729Z,76.79
2022-08-28T22:16:55.434Z,77.73
2022-08-28T22:19:27.374Z,78.19
2022-08-28T22:22:23.215Z,77.47
2022-08-28T22:24:54.775Z,77.37
2022-08-28T22:27:28.771Z,77.98
2022-08-28T22:29:59.676Z,77.87
2022-08-28T22:32:33.680Z,78.06
2022-08-28T22:35:09.128Z,77.74
2022-08-28T22:37:43.647Z,78.25
2022-08-28T22:40:16.321Z,77.68
2022-08-28T22:42:45.864Z,77.80
2022-08-28T22:45:22.259Z,77.43
2022-08-28T22:47:53.520Z,78.01
2022-08-28T22:50:27.916Z,77.56
2022-08-28T22:52:59.289Z,77.55
2022-08-28T22:55:33.319Z,77.71
2022-08-28T22:58:03.689Z,77.22
2022-08-28T23:00:48.715Z,77.66
2022-08-28T23:03:22.282Z,77.60
2022-08-28T23:05:54.696Z,77.54
2022-08-28T23:08:33.758Z,77.66
2022-08-28T23:11:07.135Z,77.77
2022-08-28T23:13:40.505Z,77.58
2022-08-28T23:16:12.034Z,77.55
2022-08-28T23:19:06.720Z,77.78
2022-08-28T23:21:34.257Z,77.71
2022-08-28T23:24:04.244Z,77.87
2022-08-28T23:26:34.678Z,77.79
2022-08-28T23:29:06.780Z,78.38
2022-08-28T23:31:40.589Z,78.34
2022-08-28T23:34:11.677Z,78.41
2022-08-28T23:36:43.343Z,78.06
2022-08-28T23:39:17.962Z,78.52
2022-08-28T23:41:49.932Z,78.43
2022-08-28T23:44:22.479Z,78.34
2022-08-28T23:46:55.254Z,78.72
2022-08-28T23:49:42.809Z,78.43
2022-08-28T23:52:14.166Z,78.39
2022-08-28T23:54:46.337Z,78.65
2022-08-28T23:57:21.237Z,78.72
2022-08-28T23:59:57.946Z,79.42
